createdAt,value
2023-09-02T00:00:36.986Z,16.10
2023-09-02T00:03:04.458Z,16.10
2023-09-02T00:05:31.750Z,16.00
2023-09-02T00:07:58.920Z,16.00
2023-09-02T00:10:26.232Z,16.00
2023-09-02T00:12:53.713Z,16.00
2023-09-02T00:15:21.036Z,16.00
2023-09-02T00:17:48.733Z,16.00
2023-09-02T00:20:16.240Z,16.00
2023-09-02T00:22:43.480Z,16.00
2023-09-02T00:25:13.421Z,16.00
2023-09-02T00:27:40.788Z,16.00
2023-09-02T00:30:14.036Z,16.00
2023-09-02T00:32:44.448Z,15.90
2023-09-02T00:35:11.862Z,15.90
2023-09-02T00:37:39.107Z,15.90
2023-09-02T00:40:10.811Z,15.90
2023-09-02T00:42:39.814Z,15.90
2023-09-02T00:45:07.619Z,15.90
2023-09-02T00:47:34.911Z,15.90
2023-09-02T00:50:02.935Z,15.90
2023-09-02T00:52:34.351Z,16.00
2023-09-02T00:55:02.966Z,16.00
2023-09-02T00:57:30.621Z,16.00
2023-09-02T00:59:58.327Z,16.00
2023-09-02T01:02:25.794Z,16.00
2023-09-02T01:04:53.997Z,16.10
2023-09-02T01:07:21.997Z,16.10
2023-09-02T01:09:49.955Z,16.10
2023-09-02T01:12:17.547Z,16.00
2023-09-02T01:14:45.001Z,16.10
2023-09-02T01:17:12.253Z,16.10
2023-09-02T01:19:42.695Z,16.10
2023-09-02T01:22:52.287Z,16.10
2023-09-02T01:25:37.901Z,16.10
2023-09-02T01:28:12.230Z,16.10
2023-09-02T01:30:40.864Z,16.10
2023-09-02T01:33:10.906Z,16.10
2023-09-02T01:35:39.434Z,16.00
2023-09-02T01:38:08.252Z,16.00
2023-09-02T01:40:36.634Z,16.00
2023-09-02T01:43:05.575Z,16.00
2023-09-02T01:45:36.268Z,16.00
2023-09-02T01:48:04.971Z,15.90
2023-09-02T01:50:34.627Z,15.90
2023-09-02T01:53:02.527Z,15.90
2023-09-02T01:55:29.880Z,15.90
2023-09-02T01:57:57.579Z,15.80
2023-09-02T02:00:24.854Z,15.80
2023-09-02T02:02:55.535Z,15.80
2023-09-02T02:05:44.263Z,15.80
2023-09-02T02:08:16.611Z,15.80
2023-09-02T02:10:47.027Z,15.70
2023-09-02T02:13:14.525Z,15.70
2023-09-02T02:15:42.006Z,15.70
2023-09-02T02:18:12.515Z,15.70
2023-09-02T02:20:50.977Z,15.70
2023-09-02T02:23:18.440Z,15.70
2023-09-02T02:25:45.883Z,15.70
2023-09-02T02:28:13.074Z,15.60
2023-09-02T02:30:40.279Z,15.60
2023-09-02T02:33:07.668Z,15.60
2023-09-02T02:35:34.894Z,15.60
2023-09-02T02:38:02.263Z,15.50
2023-09-02T02:40:29.871Z,15.50
2023-09-02T02:42:57.066Z,15.60
2023-09-02T02:45:24.353Z,15.50
2023-09-02T02:47:51.705Z,15.40
2023-09-02T02:50:19.105Z,15.40
2023-09-02T02:52:46.826Z,15.40
2023-09-02T02:55:20.724Z,15.40
2023-09-02T02:57:49.034Z,15.40
2023-09-02T03:00:17.569Z,15.40
2023-09-02T03:02:47.687Z,15.40
2023-09-02T03:05:21.043Z,15.40
2023-09-02T03:07:55.597Z,15.40
2023-09-02T03:10:48.376Z,15.40
2023-09-02T03:13:34.036Z,15.40
2023-09-02T03:16:22.428Z,15.40
2023-09-02T03:19:19.259Z,15.40
2023-09-02T04:11:04.989Z,15.40
2023-09-02T04:13:33.895Z,15.40
2023-09-02T04:16:06.959Z,15.40
2023-09-02T04:18:38.512Z,15.50
2023-09-02T04:21:12.115Z,15.50
2023-09-02T04:23:43.119Z,15.60
2023-09-02T04:26:16.131Z,15.60
2023-09-02T04:28:43.771Z,15.60
2023-09-02T04:31:12.656Z,15.60
2023-09-02T04:33:39.920Z,15.60
2023-09-02T04:36:07.688Z,15.60
2023-09-02T04:38:39.777Z,15.60
2023-09-02T04:41:08.234Z,15.60
2023-09-02T04:44:39.807Z,15.60
2023-09-02T04:47:07.943Z,15.70
2023-09-02T04:49:35.559Z,15.70
2023-09-02T04:52:05.103Z,15.80
2023-09-02T04:54:33.566Z,15.80
2023-09-02T04:57:00.710Z,15.80
2023-09-02T04:59:30.772Z,15.90
2023-09-02T05:01:58.027Z,15.90
2023-09-02T05:04:25.316Z,15.90
2023-09-02T05:06:52.518Z,16.00
2023-09-02T05:09:20.000Z,16.00
2023-09-02T05:11:47.146Z,16.00
2023-09-02T05:14:14.462Z,16.00
2023-09-02T05:16:42.771Z,16.00
2023-09-02T05:19:10.436Z,16.00
2023-09-02T05:21:38.359Z,15.90
2023-09-02T05:24:05.976Z,15.90
2023-09-02T05:26:33.325Z,15.80
2023-09-02T05:29:00.620Z,15.70
2023-09-02T05:31:27.860Z,15.70
2023-09-02T05:33:54.893Z,15.60
2023-09-02T05:36:22.424Z,15.50
2023-09-02T05:38:49.526Z,15.50
2023-09-02T05:41:16.685Z,15.50
2023-09-02T05:43:43.868Z,15.60
2023-09-02T05:46:11.319Z,15.60
2023-09-02T05:52:59.735Z,15.70
2023-09-02T05:55:26.933Z,15.70
2023-09-02T05:57:54.138Z,15.70
2023-09-02T06:00:21.332Z,15.70
2023-09-02T06:02:48.590Z,15.60
2023-09-02T06:05:15.815Z,15.60
2023-09-02T06:07:42.951Z,15.60
2023-09-02T06:10:10.529Z,15.70
2023-09-02T06:12:37.636Z,15.70
2023-09-02T06:15:05.287Z,15.70
2023-09-02T06:17:33.322Z,15.80
2023-09-02T06:20:00.876Z,15.90
2023-09-02T06:22:28.264Z,15.90
2023-09-02T06:25:21.272Z,16.00
2023-09-02T06:27:48.405Z,16.10
2023-09-02T06:30:15.639Z,16.20
2023-09-02T06:32:42.919Z,16.20
2023-09-02T06:35:13.358Z,16.30
2023-09-02T06:37:40.501Z,16.30
2023-09-02T06:40:08.062Z,16.40
2023-09-02T06:42:35.139Z,16.50
2023-09-02T06:45:02.507Z,16.60
2023-09-02T06:47:29.628Z,16.70
2023-09-02T06:49:56.904Z,16.80
2023-09-02T06:52:24.047Z,16.90
2023-09-02T06:54:51.437Z,17.00
2023-09-02T06:57:18.602Z,17.10
2023-09-02T06:59:45.740Z,17.20
2023-09-02T07:02:12.957Z,17.30
2023-09-02T07:04:43.266Z,17.30
2023-09-02T07:07:10.510Z,17.40
2023-09-02T07:09:38.586Z,17.50
2023-09-02T07:12:12.712Z,17.60
2023-09-02T07:15:05.592Z,17.70
2023-09-02T07:18:44.677Z,17.80
2023-09-02T07:33:38.132Z,18.30
2023-09-02T07:36:12.988Z,18.50
2023-09-02T07:38:41.527Z,18.60
2023-09-02T07:41:11.104Z,18.70
2023-09-02T07:43:38.505Z,18.80
2023-09-02T07:46:07.291Z,18.90
2023-09-02T07:48:34.438Z,19.00
2023-09-02T07:51:02.187Z,19.10
2023-09-02T07:53:30.137Z,19.20
2023-09-02T07:55:57.429Z,19.30
2023-09-02T07:58:24.609Z,19.40
2023-09-02T08:01:02.326Z,19.50
2023-09-02T08:03:30.083Z,19.60
2023-09-02T08:05:57.243Z,19.70
2023-09-02T08:08:24.339Z,19.80
2023-09-02T08:11:02.611Z,20.00
2023-09-02T08:13:29.758Z,20.10
2023-09-02T08:15:56.985Z,20.20
2023-09-02T08:18:24.378Z,20.40
2023-09-02T08:20:51.500Z,20.50
2023-09-02T08:23:18.850Z,20.50
2023-09-02T08:25:46.242Z,20.60
2023-09-02T08:28:13.429Z,20.70
2023-09-02T08:30:42.568Z,20.80
2023-09-02T08:33:10.075Z,21.00
2023-09-02T08:35:38.034Z,21.10
2023-09-02T08:38:05.887Z,21.10
2023-09-02T08:40:33.567Z,21.30
2023-09-02T08:43:55.109Z,21.40
2023-09-02T08:46:27.232Z,21.60
2023-09-02T08:48:59.858Z,21.90
2023-09-02T08:51:32.134Z,22.00
2023-09-02T08:54:04.912Z,22.20
2023-09-02T08:56:32.198Z,22.30
2023-09-02T08:59:02.585Z,22.40
2023-09-02T09:01:31.873Z,22.50
2023-09-02T09:09:17.249Z,22.80
2023-09-02T09:11:45.692Z,22.90
2023-09-02T09:14:36.400Z,23.00
2023-09-02T09:17:05.699Z,23.20
2023-09-02T09:19:34.402Z,23.30
2023-09-02T09:22:04.954Z,23.40
2023-09-02T09:24:32.394Z,23.50
2023-09-02T09:27:08.139Z,23.60
2023-09-02T09:29:43.303Z,23.80
2023-09-02T09:32:12.780Z,23.80
2023-09-02T09:34:44.742Z,23.90
2023-09-02T09:37:12.239Z,24.00
2023-09-02T09:39:54.148Z,24.20
2023-09-02T09:42:36.006Z,24.30
2023-09-02T09:45:04.690Z,24.40
2023-09-02T09:47:31.960Z,24.50
2023-09-02T09:50:13.884Z,24.60
2023-09-02T09:52:41.310Z,24.70
2023-09-02T09:55:22.985Z,24.80
2023-09-02T09:57:55.680Z,24.90
2023-09-02T10:00:31.368Z,25.00
2023-09-02T10:03:00.240Z,25.00
2023-09-02T10:05:32.843Z,25.10
2023-09-02T10:08:05.030Z,25.30
2023-09-02T10:10:40.070Z,25.50
2023-09-02T10:13:07.544Z,25.70
2023-09-02T10:16:01.034Z,25.80
2023-09-02T10:18:29.689Z,25.80
2023-09-02T10:20:57.080Z,25.80
2023-09-02T10:23:26.980Z,25.90
2023-09-02T10:26:23.030Z,26.00
2023-09-02T10:29:22.650Z,26.00
2023-09-02T10:31:52.711Z,26.00
2023-09-02T10:34:32.776Z,26.10
2023-09-02T10:37:03.216Z,26.00
2023-09-02T10:39:40.900Z,25.90
2023-09-02T10:42:09.437Z,25.90
2023-09-02T10:44:37.462Z,25.90
2023-09-02T10:47:04.780Z,25.90
2023-09-02T10:49:33.075Z,26.00
2023-09-02T10:52:00.965Z,26.10
2023-09-02T10:55:00.040Z,26.20
2023-09-02T10:57:27.246Z,26.50
2023-09-02T11:00:14.557Z,26.60
2023-09-02T11:02:42.900Z,26.70
2023-09-02T11:05:10.393Z,26.70
2023-09-02T11:07:40.503Z,26.70
2023-09-02T11:10:09.797Z,26.70
2023-09-02T11:13:02.910Z,26.80
2023-09-02T11:15:31.087Z,26.70
2023-09-02T11:17:58.308Z,26.60
2023-09-02T11:20:27.107Z,26.30
2023-09-02T11:23:00.719Z,26.00
2023-09-02T11:25:45.482Z,26.10
2023-09-02T11:28:18.682Z,26.30
2023-09-02T11:31:11.301Z,26.60
2023-09-02T11:33:42.245Z,26.90
2023-09-02T11:36:19.699Z,27.30
2023-09-02T11:38:47.083Z,27.60
2023-09-02T11:41:27.029Z,27.90
2023-09-02T11:43:55.134Z,28.20
2023-09-02T11:46:22.536Z,28.40
2023-09-02T11:48:49.675Z,28.60
2023-09-02T11:51:17.914Z,28.80
2023-09-02T11:53:47.722Z,29.00
2023-09-02T11:56:15.201Z,29.10
2023-09-02T11:58:42.400Z,29.20
2023-09-02T12:01:09.674Z,29.10
2023-09-02T12:03:36.830Z,29.00
2023-09-02T12:06:05.191Z,28.90
2023-09-02T12:08:32.886Z,28.90
2023-09-02T12:11:05.205Z,28.80
2023-09-02T12:13:33.813Z,28.70
2023-09-02T12:16:03.230Z,28.60
2023-09-02T12:18:30.847Z,28.50
2023-09-02T12:21:50.821Z,28.50
2023-09-02T12:24:18.104Z,28.40
2023-09-02T12:26:48.236Z,28.40
2023-09-02T12:29:20.229Z,28.40
2023-09-02T12:36:06.442Z,28.50
2023-09-02T12:38:48.747Z,28.30
2023-09-02T12:41:15.823Z,28.10
2023-09-02T12:43:42.873Z,28.10
2023-09-02T12:46:10.112Z,28.10
2023-09-02T12:48:37.420Z,28.10
2023-09-02T12:51:04.587Z,28.10
2023-09-02T12:53:31.664Z,27.80
2023-09-02T12:55:58.725Z,27.50
2023-09-02T12:58:25.826Z,27.60
2023-09-02T13:01:47.024Z,27.70
2023-09-02T13:04:14.196Z,27.70
2023-09-02T13:06:52.062Z,27.70
2023-09-02T13:09:19.122Z,27.70
2023-09-02T13:11:48.571Z,27.80
2023-09-02T13:14:20.880Z,28.00
2023-09-02T13:16:48.008Z,28.00
2023-09-02T13:19:15.231Z,28.00
2023-09-02T13:21:42.361Z,27.90
2023-09-02T13:24:16.131Z,27.90
2023-09-02T13:26:47.995Z,27.90
2023-09-02T13:30:10.817Z,27.80
2023-09-02T13:32:39.917Z,27.80
2023-09-02T13:35:22.143Z,27.80
2023-09-02T13:37:50.033Z,27.80
2023-09-02T13:40:17.319Z,27.80
2023-09-02T13:42:45.823Z,27.80
2023-09-02T13:45:16.047Z,27.80
2023-09-02T13:47:50.655Z,27.90
2023-09-02T13:50:19.145Z,28.10
2023-09-02T13:52:51.936Z,28.20
2023-09-02T13:55:24.412Z,28.50
2023-09-02T13:57:53.539Z,28.80
2023-09-02T14:00:33.234Z,28.90
2023-09-02T14:03:01.792Z,29.10
2023-09-02T14:05:29.059Z,29.20
2023-09-02T14:08:06.465Z,29.40
2023-09-02T14:10:34.410Z,29.70
2023-09-02T14:13:11.537Z,30.00
2023-09-02T14:15:38.621Z,30.20
2023-09-02T14:18:06.241Z,29.90
2023-09-02T14:20:36.018Z,29.50
2023-09-02T14:23:03.621Z,29.10
2023-09-02T14:25:30.769Z,28.70
2023-09-02T14:27:57.931Z,28.70
2023-09-02T14:30:25.028Z,28.70
2023-09-02T14:32:52.215Z,28.50
2023-09-02T14:35:20.174Z,28.60
2023-09-02T14:37:47.287Z,28.80
2023-09-02T14:40:14.329Z,28.80
2023-09-02T14:42:41.468Z,28.80
2023-09-02T14:45:08.968Z,28.80
2023-09-02T14:47:36.196Z,28.90
2023-09-02T14:50:04.552Z,29.10
2023-09-02T14:52:35.141Z,29.20
2023-09-02T14:55:02.565Z,29.30
2023-09-02T14:57:29.960Z,29.10
2023-09-02T14:59:57.155Z,29.10
2023-09-02T15:02:36.758Z,29.00
2023-09-02T15:05:20.418Z,29.00
2023-09-02T15:07:47.856Z,28.80
2023-09-02T15:10:23.855Z,28.80
2023-09-02T15:12:51.156Z,28.80
2023-09-02T15:15:21.820Z,28.80
2023-09-02T15:17:51.293Z,28.90
2023-09-02T15:20:25.219Z,29.00
2023-09-02T15:22:57.420Z,28.90
2023-09-02T15:25:28.018Z,28.90
2023-09-02T15:27:56.855Z,28.80
2023-09-02T15:30:30.617Z,28.70
2023-09-02T15:32:59.803Z,28.60
2023-09-02T15:35:27.024Z,28.60
2023-09-02T15:37:54.141Z,28.60
2023-09-02T15:40:32.231Z,28.60
2023-09-02T15:43:01.416Z,28.40
2023-09-02T15:45:28.556Z,28.30
2023-09-02T15:47:56.294Z,28.10
2023-09-02T15:50:24.017Z,27.90
2023-09-02T15:52:52.420Z,27.90
2023-09-02T15:55:21.576Z,27.90
2023-09-02T15:57:55.337Z,27.80
2023-09-02T16:22:46.636Z,26.70
2023-09-02T16:25:17.647Z,26.60
2023-09-02T16:29:00.572Z,26.60
2023-09-02T17:29:01.607Z,24.20
2023-09-02T17:32:35.384Z,24.20
2023-09-02T17:35:07.359Z,24.10
2023-09-02T17:38:08.188Z,23.90
2023-09-02T17:40:45.088Z,23.70
2023-09-02T17:44:01.753Z,23.60
2023-09-02T17:47:28.607Z,23.50
2023-09-02T17:49:58.027Z,23.40
2023-09-02T17:52:28.585Z,23.30
2023-09-02T17:54:55.861Z,23.20
2023-09-02T17:57:23.156Z,22.90
2023-09-02T17:59:50.893Z,22.80
2023-09-02T18:02:18.492Z,22.70
2023-09-02T18:04:45.865Z,22.70
2023-09-02T18:07:13.159Z,22.70
2023-09-02T18:09:40.316Z,22.70
2023-09-02T18:12:10.699Z,22.70
2023-09-02T18:14:45.167Z,22.60
2023-09-02T18:17:27.378Z,22.60
2023-09-02T18:23:16.194Z,22.40
2023-09-02T18:26:38.598Z,22.30
2023-09-02T18:29:53.452Z,22.20
2023-09-02T18:32:30.680Z,22.10
2023-09-02T18:34:58.116Z,22.10
2023-09-02T18:37:25.310Z,22.00
2023-09-02T18:39:52.476Z,21.90
2023-09-02T18:42:20.711Z,21.90
2023-09-02T18:44:47.977Z,21.80
2023-09-02T18:47:15.250Z,21.70
2023-09-02T18:49:42.363Z,21.70
2023-09-02T18:52:09.694Z,21.60
2023-09-02T18:54:42.002Z,21.60
2023-09-02T18:57:19.259Z,21.60
2023-09-02T19:00:56.229Z,21.50
2023-09-02T19:03:24.865Z,21.40
2023-09-02T19:05:57.616Z,21.30
2023-09-02T19:08:35.777Z,21.30
2023-09-02T19:11:11.233Z,21.20
2023-09-02T19:13:47.348Z,21.20
2023-09-02T19:16:18.341Z,21.10
2023-09-02T19:18:46.919Z,21.10
2023-09-02T19:21:20.016Z,21.00
2023-09-02T19:23:47.351Z,21.00
2023-09-02T19:26:16.016Z,20.90
2023-09-02T19:28:43.410Z,20.90
2023-09-02T19:31:10.807Z,20.80
2023-09-02T19:33:46.963Z,20.80
2023-09-02T19:36:15.494Z,20.80
2023-09-02T19:38:42.668Z,20.70
2023-09-02T19:41:12.193Z,20.70
2023-09-02T19:43:40.215Z,20.60
2023-09-02T19:46:08.221Z,20.60
2023-09-02T19:48:35.536Z,20.60
2023-09-02T19:51:02.824Z,20.50
2023-09-02T19:53:30.829Z,20.50
2023-09-02T19:56:03.024Z,20.50
2023-09-02T19:58:31.419Z,20.40
2023-09-02T20:01:03.563Z,20.40
2023-09-02T20:03:39.702Z,20.40
2023-09-02T20:06:19.941Z,20.30
2023-09-02T20:08:47.233Z,20.30
2023-09-02T20:11:14.550Z,20.20
2023-09-02T20:13:44.721Z,20.20
2023-09-02T20:16:13.245Z,20.10
2023-09-02T20:18:45.309Z,20.10
2023-09-02T20:21:12.700Z,20.10
2023-09-02T20:23:42.399Z,20.10
2023-09-02T20:26:13.371Z,20.00
2023-09-02T20:28:41.146Z,20.00
2023-09-02T20:31:15.486Z,20.00
2023-09-02T20:33:43.643Z,19.90
2023-09-02T20:36:16.858Z,19.90
2023-09-02T20:38:44.668Z,19.90
2023-09-02T20:41:12.870Z,19.80
2023-09-02T20:43:40.045Z,19.80
2023-09-02T20:46:11.406Z,19.80
2023-09-02T20:48:38.528Z,19.70
2023-09-02T20:51:05.726Z,19.70
2023-09-02T20:53:32.821Z,19.60
2023-09-02T20:55:59.887Z,19.60
2023-09-02T20:58:27.019Z,19.60
2023-09-02T21:00:54.243Z,19.60
2023-09-02T21:03:21.419Z,19.50
2023-09-02T21:05:48.651Z,19.50
2023-09-02T21:08:15.724Z,19.50
2023-09-02T21:10:42.941Z,19.50
2023-09-02T21:17:28.586Z,19.40
2023-09-02T21:19:55.618Z,19.40
2023-09-02T21:22:22.617Z,19.30
2023-09-02T21:24:50.774Z,19.30
2023-09-02T21:27:17.845Z,19.30
2023-09-02T21:29:44.930Z,19.20
2023-09-02T21:32:11.984Z,19.20
2023-09-02T21:34:39.179Z,19.20
2023-09-02T21:37:06.342Z,19.20
2023-09-02T21:39:33.698Z,19.20
2023-09-02T21:42:00.802Z,19.20
2023-09-02T21:44:27.896Z,19.10
2023-09-02T21:46:55.056Z,19.10
2023-09-02T21:49:22.169Z,19.00
2023-09-02T21:51:50.538Z,19.00
2023-09-02T21:54:17.719Z,19.00
2023-09-02T21:56:44.884Z,19.00
2023-09-02T21:59:11.968Z,18.90
2023-09-02T22:01:39.179Z,18.90
2023-09-02T22:04:06.456Z,18.90
2023-09-02T22:06:34.001Z,18.90
2023-09-02T22:09:01.142Z,18.90
2023-09-02T22:11:28.269Z,18.90
2023-09-02T22:13:55.419Z,18.80
2023-09-02T22:16:22.554Z,18.80
2023-09-02T22:19:00.289Z,18.70
2023-09-02T22:21:35.637Z,18.60
2023-09-02T22:24:02.996Z,18.60
2023-09-02T22:26:30.055Z,18.50
2023-09-02T22:28:57.152Z,18.50
2023-09-02T22:31:24.250Z,18.50
2023-09-02T22:33:51.483Z,18.50
2023-09-02T22:36:18.592Z,18.40
2023-09-02T22:38:54.662Z,18.40
2023-09-02T22:41:23.323Z,18.40
2023-09-02T22:43:50.437Z,18.40
2023-09-02T22:46:17.770Z,18.40
2023-09-02T22:48:44.954Z,18.30
2023-09-02T22:51:12.020Z,18.30
2023-09-02T22:53:40.470Z,18.30
2023-09-02T22:56:15.237Z,18.30
2023-09-02T22:58:42.594Z,18.30
2023-09-02T23:01:11.925Z,18.20
2023-09-02T23:03:39.275Z,18.20
2023-09-02T23:06:07.760Z,18.20
2023-09-02T23:08:36.927Z,18.20
2023-09-02T23:11:04.446Z,18.20
2023-09-02T23:13:31.650Z,18.20
2023-09-02T23:16:03.658Z,18.20
2023-09-02T23:18:31.003Z,18.20
2023-09-02T23:21:07.999Z,18.20
2023-09-02T23:23:35.032Z,18.20
2023-09-02T23:26:03.095Z,18.20
2023-09-02T23:28:30.180Z,18.10
2023-09-02T23:30:58.597Z,18.10
2023-09-02T23:33:25.953Z,18.10
2023-09-02T23:35:57.455Z,18.10
2023-09-02T23:38:25.927Z,18.10
2023-09-02T23:40:53.728Z,18.10
2023-09-02T23:43:21.369Z,18.10
2023-09-02T23:45:53.023Z,18.10
2023-09-02T23:48:21.836Z,18.00
2023-09-02T23:50:50.893Z,18.00
2023-09-02T23:53:18.487Z,18.00
2023-09-02T23:55:47.409Z,18.00
2023-09-02T23:58:14.502Z,17.90
